Time;durP1;ratioP1;P1;durP2;ratioP2;P2;SDS_P1;SDS_P2;PMS_P1;PMS_P2;Temp;Humidity;BMP_temperature;BMP_pressure;BME280_temperature;BME280_humidity;BME280_pressure;Samples;Min_cycle;Max_cycle;Signal;HPM_P1;HPM_P2
2022/07/13 00:02:14;;;;;;;5.57;2.60;;;13.60;46.20;;;;;;5038971;28;47160;-63
2022/07/13 00:04:39;;;;;;;5.93;2.40;;;13.60;46.40;;;;;;5038942;28;46594;-63
2022/07/13 00:07:05;;;;;;;4.10;2.57;;;13.60;46.50;;;;;;5038958;28;46407;-63
2022/07/13 00:09:30;;;;;;;5.00;2.63;;;13.70;46.50;;;;;;5036265;28;46453;-63
2022/07/13 00:11:56;;;;;;;5.13;2.70;;;13.70;46.40;;;;;;5039334;28;46637;-64
2022/07/13 00:14:21;;;;;;;6.23;2.37;;;13.70;46.40;;;;;;5032398;28;46522;-63
2022/07/13 00:16:47;;;;;;;5.60;2.03;;;13.60;46.90;;;;;;5035713;28;46485;-63
2022/07/13 00:19:13;;;;;;;3.67;2.40;;;13.40;47.20;;;;;;5034575;28;46497;-63
2022/07/13 00:21:38;;;;;;;6.80;2.60;;;13.30;47.60;;;;;;5034936;28;46714;-63
2022/07/13 00:24:04;;;;;;;4.00;2.43;;;13.20;47.70;;;;;;5035408;28;46470;-63
2022/07/13 00:26:29;;;;;;;9.73;2.83;;;13.30;47.90;;;;;;5036141;28;46391;-63
2022/07/13 00:28:55;;;;;;;4.47;2.67;;;13.30;47.90;;;;;;5034536;28;46660;-63
2022/07/13 00:31:21;;;;;;;6.63;2.50;;;13.30;47.80;;;;;;5034101;28;46483;-63
2022/07/13 00:33:46;;;;;;;5.33;2.53;;;13.30;47.80;;;;;;5036543;28;46496;-64
2022/07/13 00:36:12;;;;;;;13.90;2.53;;;13.30;47.80;;;;;;5039006;28;46307;-63
2022/07/13 00:38:37;;;;;;;7.20;2.53;;;13.20;47.90;;;;;;5034294;28;46444;-63
2022/07/13 00:41:06;;;;;;;5.53;2.43;;;13.10;48.20;;;;;;5036941;28;47184;-64
2022/07/13 00:43:32;;;;;;;3.50;2.17;;;13.20;48.40;;;;;;5035260;28;46471;-63
2022/07/13 00:45:57;;;;;;;4.13;2.30;;;13.20;48.40;;;;;;5035630;28;46619;-64
2022/07/13 00:48:23;;;;;;;3.90;2.60;;;13.20;48.60;;;;;;5035223;28;46982;-65
2022/07/13 00:50:50;;;;;;;4.67;2.60;;;13.10;48.50;;;;;;5036829;28;46628;-63
2022/07/13 00:53:18;;;;;;;2.73;2.03;;;13.10;48.50;;;;;;5039137;28;46407;-63
2022/07/13 00:55:45;;;;;;;11.70;3.10;;;13.00;48.40;;;;;;5036900;28;45843;-64
2022/07/13 00:58:11;;;;;;;3.70;2.50;;;13.00;49.20;;;;;;5037905;28;46615;-64
2022/07/13 01:00:37;;;;;;;3.33;2.27;;;12.80;48.80;;;;;;5037685;28;46352;-63
2022/07/13 01:03:03;;;;;;;4.67;2.13;;;12.80;49.00;;;;;;5040215;28;46481;-63
2022/07/13 01:05:28;;;;;;;5.10;2.27;;;12.70;49.10;;;;;;5037825;28;47140;-63
2022/07/13 01:07:55;;;;;;;5.60;2.40;;;12.60;48.90;;;;;;5039023;28;46462;-64
2022/07/13 01:10:21;;;;;;;4.27;2.00;;;12.70;49.00;;;;;;5037543;28;47098;-63
2022/07/13 01:12:47;;;;;;;4.33;2.50;;;12.70;48.90;;;;;;5035377;28;46398;-63
2022/07/13 01:15:13;;;;;;;6.70;2.27;;;12.70;48.90;;;;;;5037555;28;46414;-63
2022/07/13 01:17:39;;;;;;;7.70;2.43;;;12.60;49.00;;;;;;5038160;28;46954;-64
2022/07/13 01:20:06;;;;;;;7.70;2.60;;;12.70;49.10;;;;;;5038263;28;47157;-63
2022/07/13 01:22:49;;;;;;;5.37;2.67;;;12.80;49.20;;;;;;5037917;28;46411;-64
2022/07/13 01:25:16;;;;;;;11.37;2.70;;;12.70;49.10;;;;;;5038628;28;46435;-63
2022/07/13 01:27:42;;;;;;;7.80;2.67;;;12.80;49.20;;;;;;5045978;28;46670;-64
2022/07/13 01:30:09;;;;;;;7.77;2.73;;;12.80;49.40;;;;;;5037734;28;46602;-64
2022/07/13 01:32:47;;;;;;;3.27;2.37;;;12.70;49.50;;;;;;5037498;28;46379;-64
2022/07/13 01:35:16;;;;;;;6.60;2.90;;;12.70;50.00;;;;;;5038321;28;46621;-64
2022/07/13 01:37:43;;;;;;;4.70;2.10;;;12.70;49.80;;;;;;5036688;28;46395;-65
2022/07/13 01:40:09;;;;;;;4.50;2.47;;;12.70;49.90;;;;;;5037853;28;46466;-64
2022/07/13 01:42:46;;;;;;;4.07;2.63;;;12.60;49.90;;;;;;5037527;28;46386;-64
2022/07/13 01:45:13;;;;;;;5.37;2.73;;;12.60;50.30;;;;;;5040170;28;46524;-64
2022/07/13 01:47:43;;;;;;;4.97;2.27;;;12.60;50.30;;;;;;5040369;28;46311;-64
2022/07/13 01:50:10;;;;;;;7.60;2.37;;;12.50;50.30;;;;;;5040427;28;48290;-64
2022/07/13 01:52:36;;;;;;;5.77;2.50;;;12.50;50.40;;;;;;5038917;28;46374;-64
2022/07/13 01:55:03;;;;;;;3.50;2.30;;;12.50;50.40;;;;;;5040164;28;46576;-64
2022/07/13 01:57:29;;;;;;;5.20;1.93;;;12.50;50.50;;;;;;5040942;28;46279;-64
2022/07/13 01:59:59;;;;;;;5.10;1.90;;;12.40;50.60;;;;;;5040586;28;46682;-64
2022/07/13 02:02:25;;;;;;;7.73;2.07;;;12.40;50.50;;;;;;5039425;28;46486;-64
2022/07/13 02:04:51;;;;;;;3.73;2.07;;;12.40;50.50;;;;;;5040266;28;46580;-64
2022/07/13 02:07:16;;;;;;;3.60;1.90;;;12.30;50.50;;;;;;5040758;28;46572;-64
2022/07/13 02:09:42;;;;;;;4.63;2.33;;;12.30;50.50;;;;;;5040704;28;46413;-64
2022/07/13 02:12:08;;;;;;;6.07;2.80;;;12.30;50.60;;;;;;5040532;28;46390;-64
2022/07/13 02:14:33;;;;;;;5.50;2.70;;;12.30;50.50;;;;;;5041376;28;46647;-64
2022/07/13 02:16:59;;;;;;;6.17;2.30;;;12.30;50.40;;;;;;5041204;28;46651;-64
2022/07/13 02:19:25;;;;;;;4.83;2.40;;;12.30;50.40;;;;;;5040969;28;46980;-64
2022/07/13 02:21:50;;;;;;;5.93;2.13;;;12.30;50.50;;;;;;5039843;28;46606;-64
2022/07/13 02:24:16;;;;;;;7.40;2.50;;;12.30;50.60;;;;;;5040608;28;46377;-65
2022/07/13 02:26:42;;;;;;;6.43;2.27;;;12.30;50.80;;;;;;5038188;28;46434;-64
2022/07/13 02:29:07;;;;;;;3.33;2.17;;;12.30;51.10;;;;;;5039336;28;46421;-64
2022/07/13 02:31:34;;;;;;;4.97;2.67;;;12.20;51.10;;;;;;5039593;28;46424;-64
2022/07/13 02:34:00;;;;;;;5.17;2.43;;;12.20;51.20;;;;;;5040196;28;46425;-64
2022/07/13 02:36:26;;;;;;;3.67;2.03;;;12.20;51.30;;;;;;5038259;28;46331;-65
2022/07/13 02:38:52;;;;;;;12.10;2.27;;;12.20;51.30;;;;;;5039114;28;46687;-64
2022/07/13 02:41:17;;;;;;;4.60;2.20;;;12.10;51.20;;;;;;5041683;28;46525;-64
2022/07/13 02:43:43;;;;;;;4.20;2.50;;;12.10;51.50;;;;;;5037660;28;46558;-64
2022/07/13 02:46:09;;;;;;;4.63;2.47;;;12.00;51.60;;;;;;5041551;28;46319;-64
2022/07/13 02:48:34;;;;;;;5.80;2.30;;;11.90;51.60;;;;;;5037553;28;46434;-64
2022/07/13 02:51:00;;;;;;;4.07;1.80;;;11.90;51.80;;;;;;5041611;28;46452;-64
2022/07/13 02:53:25;;;;;;;5.33;2.00;;;11.80;51.80;;;;;;5040160;28;46314;-64
2022/07/13 02:55:51;;;;;;;6.53;2.00;;;11.80;52.00;;;;;;5041025;28;46659;-64
2022/07/13 02:58:17;;;;;;;13.87;2.10;;;11.80;52.10;;;;;;5037849;28;48001;-64
2022/07/13 03:00:42;;;;;;;4.07;2.20;;;11.80;52.00;;;;;;5038622;28;46332;-64
2022/07/13 03:03:08;;;;;;;4.13;2.40;;;11.80;51.90;;;;;;5042354;28;46531;-64
2022/07/13 03:05:33;;;;;;;3.90;2.50;;;11.80;51.70;;;;;;5036016;28;46707;-64
2022/07/13 03:07:59;;;;;;;5.53;2.00;;;11.80;51.70;;;;;;5038236;28;46381;-64
2022/07/13 03:10:25;;;;;;;11.13;2.30;;;11.80;51.90;;;;;;5038166;28;46473;-64
2022/07/13 03:12:50;;;;;;;3.70;2.50;;;11.70;51.70;;;;;;5036576;28;46431;-64
2022/07/13 03:15:16;;;;;;;3.97;2.07;;;11.70;51.90;;;;;;5039145;28;46477;-64
2022/07/13 03:17:42;;;;;;;8.63;3.00;;;11.70;51.90;;;;;;5037934;28;46410;-64
2022/07/13 03:20:08;;;;;;;3.70;1.93;;;11.70;51.90;;;;;;5037715;28;46364;-65
2022/07/13 03:22:34;;;;;;;5.83;2.50;;;11.70;51.80;;;;;;5040189;28;46319;-65
2022/07/13 03:25:00;;;;;;;3.50;2.17;;;11.80;51.80;;;;;;5039046;28;45900;-65
2022/07/13 03:27:26;;;;;;;4.73;2.37;;;11.80;51.80;;;;;;5036813;28;47043;-64
2022/07/13 03:29:51;;;;;;;3.60;1.97;;;11.80;51.90;;;;;;5038983;28;46654;-64
2022/07/13 03:32:17;;;;;;;6.60;3.03;;;11.80;52.00;;;;;;5036700;28;46464;-64
2022/07/13 03:34:42;;;;;;;12.33;2.50;;;11.80;52.10;;;;;;5039155;28;46448;-64
2022/07/13 03:37:08;;;;;;;5.30;1.83;;;11.80;51.90;;;;;;5038036;28;46532;-64
2022/07/13 03:39:34;;;;;;;4.03;2.00;;;11.80;51.90;;;;;;5037365;28;46657;-64
2022/07/13 03:42:00;;;;;;;3.83;2.23;;;11.80;51.70;;;;;;5038356;28;46427;-64
2022/07/13 03:44:28;;;;;;;6.77;2.10;;;11.80;51.70;;;;;;5037705;28;46367;-64
2022/07/13 03:46:54;;;;;;;10.23;2.50;;;11.80;51.60;;;;;;5040141;28;47297;-64
2022/07/13 03:49:20;;;;;;;6.77;2.23;;;11.80;51.80;;;;;;5038975;28;46422;-64
2022/07/13 03:51:46;;;;;;;4.23;2.30;;;11.70;51.80;;;;;;5038556;28;46268;-64
2022/07/13 03:54:12;;;;;;;3.63;2.40;;;11.80;51.80;;;;;;5038361;28;46683;-64
2022/07/13 03:56:39;;;;;;;5.20;2.27;;;11.80;51.60;;;;;;5037507;28;48034;-64
2022/07/13 03:59:05;;;;;;;3.67;2.40;;;11.90;52.70;;;;;;5036086;28;46409;-63
2022/07/13 04:01:31;;;;;;;4.50;2.40;;;11.90;51.60;;;;;;5036336;28;46375;-65
2022/07/13 04:03:58;;;;;;;4.90;2.50;;;11.90;51.60;;;;;;5038879;28;46619;-65
2022/07/13 04:06:24;;;;;;;11.40;3.90;;;12.10;51.70;;;;;;5035205;28;48046;-65
2022/07/13 04:08:50;;;;;;;5.17;2.30;;;12.10;51.60;;;;;;5038116;28;46302;-65
2022/07/13 04:11:15;;;;;;;4.73;2.53;;;12.20;51.60;;;;;;5041191;28;46370;-65
2022/07/13 04:13:41;;;;;;;6.17;2.80;;;12.20;51.60;;;;;;5037504;28;45887;-65
2022/07/13 04:16:07;;;;;;;12.20;3.27;;;12.20;51.60;;;;;;5040251;28;46478;-63
2022/07/13 04:18:32;;;;;;;9.73;2.53;;;12.30;51.50;;;;;;5039175;28;46775;-65
2022/07/13 04:20:58;;;;;;;12.10;2.50;;;12.40;51.50;;;;;;5039671;28;46395;-65
2022/07/13 04:23:24;;;;;;;4.90;2.40;;;12.40;51.40;;;;;;5038613;28;46584;-64
2022/07/13 04:25:49;;;;;;;7.50;2.73;;;12.50;51.20;;;;;;5045466;28;46390;-65
2022/07/13 04:28:15;;;;;;;7.63;2.80;;;12.60;51.10;;;;;;5042015;28;46382;-64
2022/07/13 04:30:40;;;;;;;11.40;3.03;;;12.90;51.30;;;;;;5038275;28;46636;-64
2022/07/13 04:33:06;;;;;;;6.47;2.43;;;13.00;51.10;;;;;;5039100;28;46643;-64
2022/07/13 04:35:32;;;;;;;10.13;2.80;;;13.30;51.20;;;;;;5040901;28;47092;-64
2022/07/13 04:37:57;;;;;;;5.50;2.90;;;13.50;51.30;;;;;;5036157;28;46246;-64
2022/07/13 04:40:23;;;;;;;3.77;2.10;;;13.60;51.30;;;;;;5036978;28;46371;-64
2022/07/13 04:42:49;;;;;;;5.67;2.43;;;13.80;51.20;;;;;;5038408;28;46363;-64
2022/07/13 04:45:18;;;;;;;4.07;2.53;;;13.90;51.20;;;;;;5038572;28;46387;-65
2022/07/13 04:47:44;;;;;;;5.30;2.50;;;14.10;51.10;;;;;;5037212;28;45911;-65
2022/07/13 04:50:09;;;;;;;7.07;2.40;;;14.40;50.70;;;;;;5034665;28;46454;-64
2022/07/13 04:52:35;;;;;;;7.47;2.40;;;15.30;49.30;;;;;;5038922;28;46808;-64
2022/07/13 04:55:01;;;;;;;7.43;2.10;;;17.30;46.80;;;;;;5037537;28;47031;-65
2022/07/13 04:57:27;;;;;;;3.10;1.90;;;19.10;43.00;;;;;;5038121;28;46461;-65
2022/07/13 04:59:52;;;;;;;3.00;1.80;;;20.70;38.90;;;;;;5038811;28;46400;-64
2022/07/13 05:02:18;;;;;;;4.63;1.90;;;21.40;36.30;;;;;;5041778;28;46395;-65
2022/07/13 05:04:43;;;;;;;3.50;1.63;;;22.00;35.70;;;;;;5039040;28;46532;-65
2022/07/13 05:07:09;;;;;;;4.33;2.00;;;22.80;33.30;;;;;;5035845;28;45901;-64
2022/07/13 05:09:35;;;;;;;3.50;2.13;;;23.50;30.40;;;;;;5039319;28;46458;-63
2022/07/13 05:12:00;;;;;;;6.43;2.20;;;24.10;28.40;;;;;;5041215;28;46594;-63
2022/07/13 05:14:26;;;;;;;5.27;1.87;;;24.80;27.30;;;;;;5036087;28;47013;-62
2022/07/13 05:16:52;;;;;;;7.80;2.30;;;25.50;25.50;;;;;;5039860;28;46522;-63
2022/07/13 05:19:17;;;;;;;3.77;1.80;;;26.00;23.50;;;;;;5042048;28;46429;-62
2022/07/13 05:21:43;;;;;;;6.93;3.37;;;26.60;22.20;;;;;;5039943;28;46698;-62
2022/07/13 05:24:08;;;;;;;3.83;2.20;;;26.80;21.10;;;;;;5039791;28;46572;-65
2022/07/13 05:26:36;;;;;;;4.03;2.20;;;27.10;20.10;;;;;;5040965;28;46386;-64
2022/07/13 05:29:04;;;;;;;8.07;2.00;;;27.50;18.80;;;;;;5041891;28;46460;-64
2022/07/13 05:31:31;;;;;;;5.67;2.00;;;27.80;18.00;;;;;;5041221;28;46633;-62
2022/07/13 05:33:57;;;;;;;9.20;2.50;;;28.40;16.70;;;;;;5041014;28;46361;-63
2022/07/13 05:36:22;;;;;;;3.43;1.80;;;29.10;15.60;;;;;;5036953;28;46464;-63
2022/07/13 05:38:48;;;;;;;10.30;1.70;;;29.70;14.50;;;;;;5039597;28;46382;-63
2022/07/13 05:41:14;;;;;;;5.87;2.10;;;30.50;13.70;;;;;;5041941;28;46500;-64
2022/07/13 05:43:41;;;;;;;4.70;2.00;;;31.20;12.70;;;;;;5040627;28;46364;-65
2022/07/13 05:46:07;;;;;;;6.07;2.43;;;31.70;12.30;;;;;;5042438;28;46391;-63
2022/07/13 05:48:35;;;;;;;3.80;2.10;;;32.20;11.30;;;;;;5038758;28;46378;-63
2022/07/13 05:51:01;;;;;;;4.43;1.80;;;32.60;9.90;;;;;;5040830;28;46370;-64
2022/07/13 05:53:26;;;;;;;5.80;2.20;;;32.90;9.50;;;;;;5042402;28;46375;-64
2022/07/13 05:55:52;;;;;;;8.30;2.20;;;33.20;8.50;;;;;;5041261;28;46430;-64
2022/07/13 05:58:18;;;;;;;5.23;2.00;;;33.50;8.00;;;;;;5041012;28;46610;-64
2022/07/13 06:00:43;;;;;;;6.53;2.07;;;32.90;9.10;;;;;;5040510;28;46455;-64
2022/07/13 06:03:09;;;;;;;4.53;1.90;;;31.00;13.00;;;;;;5041530;28;47149;-64
2022/07/13 06:05:35;;;;;;;20.13;1.90;;;29.50;15.70;;;;;;5041273;28;46414;-64
2022/07/13 06:08:00;;;;;;;3.90;1.80;;;28.60;17.30;;;;;;5041792;28;46494;-63
2022/07/13 06:10:26;;;;;;;3.60;1.83;;;27.70;18.40;;;;;;5041274;28;46489;-63
2022/07/13 06:12:52;;;;;;;3.80;1.90;;;26.80;19.70;;;;;;5040937;28;47225;-62
2022/07/13 06:15:18;;;;;;;4.87;2.20;;;26.30;20.50;;;;;;5040293;28;46400;-63
2022/07/13 06:17:43;;;;;;;6.63;1.70;;;25.70;21.10;;;;;;5036487;28;46402;-62
2022/07/13 06:20:09;;;;;;;3.83;1.90;;;25.20;21.60;;;;;;5039388;28;46584;-65
2022/07/13 06:22:35;;;;;;;6.17;1.73;;;24.90;22.20;;;;;;5039610;28;47183;-62
2022/07/13 06:25:03;;;;;;;4.10;1.83;;;24.70;22.60;;;;;;5036307;28;46811;-63
2022/07/13 06:27:29;;;;;;;3.03;1.93;;;24.50;23.00;;;;;;5043941;28;46523;-64
2022/07/13 06:29:55;;;;;;;3.90;2.00;;;24.30;23.40;;;;;;5036413;28;46333;-64
2022/07/13 06:32:21;;;;;;;6.80;1.87;;;24.20;23.60;;;;;;5039616;28;46526;-64
2022/07/13 06:34:47;;;;;;;3.30;1.93;;;24.20;23.50;;;;;;5037246;28;46711;-64
2022/07/13 06:37:12;;;;;;;5.17;1.90;;;24.20;23.10;;;;;;5040784;28;46476;-64
2022/07/13 06:39:38;;;;;;;5.13;1.47;;;24.20;22.90;;;;;;5039968;28;46405;-64
2022/07/13 06:42:03;;;;;;;4.33;1.67;;;24.10;22.70;;;;;;5039610;28;46583;-64
2022/07/13 06:44:29;;;;;;;3.10;1.50;;;24.10;22.60;;;;;;5039264;28;46471;-65
2022/07/13 06:46:55;;;;;;;5.07;1.70;;;24.20;22.70;;;;;;5038714;28;46397;-64
2022/07/13 06:49:21;;;;;;;5.77;1.90;;;24.20;22.60;;;;;;5036778;28;46393;-63
2022/07/13 06:51:46;;;;;;;4.53;1.67;;;24.20;22.50;;;;;;5041081;28;46231;-64
2022/07/13 06:54:12;;;;;;;6.53;1.80;;;24.20;22.40;;;;;;5038633;28;46375;-63
2022/07/13 06:56:38;;;;;;;3.60;1.80;;;24.40;22.00;;;;;;5040567;28;46406;-64
2022/07/13 06:59:03;;;;;;;5.27;1.60;;;24.60;21.70;;;;;;5033412;28;46497;-63
2022/07/13 07:01:29;;;;;;;6.57;1.93;;;24.80;21.70;;;;;;5038415;28;46465;-64
2022/07/13 07:03:54;;;;;;;10.30;1.70;;;25.00;21.30;;;;;;5038696;28;45855;-63
2022/07/13 07:06:20;;;;;;;2.90;1.50;;;25.10;21.00;;;;;;5037466;28;46401;-64
2022/07/13 07:08:46;;;;;;;3.33;1.50;;;25.20;21.60;;;;;;5037209;28;46495;-64
2022/07/13 07:11:11;;;;;;;3.60;1.60;;;25.30;20.30;;;;;;5037394;28;47266;-64
2022/07/13 07:13:37;;;;;;;3.50;1.53;;;25.30;20.30;;;;;;5036279;28;46485;-64
2022/07/13 07:16:03;;;;;;;3.47;1.40;;;25.40;20.20;;;;;;5037872;28;46075;-64
2022/07/13 07:18:28;;;;;;;5.60;1.77;;;25.40;20.10;;;;;;5038296;28;46362;-65
2022/07/13 07:20:54;;;;;;;3.33;1.60;;;25.50;20.00;;;;;;5038060;28;46617;-64
2022/07/13 07:23:19;;;;;;;3.87;1.70;;;25.60;20.00;;;;;;5040279;28;46427;-65
2022/07/13 07:25:45;;;;;;;4.73;2.17;;;25.60;19.80;;;;;;5036520;28;46390;-64
2022/07/13 07:28:11;;;;;;;3.67;1.30;;;25.70;19.60;;;;;;5038171;28;46545;-63
2022/07/13 07:30:37;;;;;;;7.47;1.90;;;25.80;19.50;;;;;;5037670;28;46413;-63
2022/07/13 07:33:03;;;;;;;3.00;1.43;;;25.90;19.40;;;;;;5036881;28;46419;-63
2022/07/13 07:35:29;;;;;;;3.67;1.40;;;26.10;19.40;;;;;;5035701;28;46302;-63
2022/07/13 07:37:54;;;;;;;3.97;1.17;;;26.10;19.30;;;;;;5036719;28;46344;-64
2022/07/13 07:40:20;;;;;;;3.97;1.73;;;26.20;19.10;;;;;;5037219;28;47275;-64
2022/07/13 07:42:45;;;;;;;2.63;1.23;;;26.20;18.60;;;;;;5035459;28;46422;-63
2022/07/13 07:45:11;;;;;;;2.40;1.10;;;26.40;18.40;;;;;;5034807;28;46508;-64
2022/07/13 07:47:38;;;;;;;3.70;1.27;;;26.60;18.20;;;;;;5033280;28;46415;-64
2022/07/13 07:50:06;;;;;;;3.83;1.10;;;26.60;17.50;;;;;;5034965;28;47633;-64
2022/07/13 07:52:31;;;;;;;5.87;1.47;;;26.80;17.00;;;;;;5037917;28;46422;-64
2022/07/13 07:54:57;;;;;;;2.20;1.10;;;26.70;15.80;;;;;;5034831;28;46404;-64
2022/07/13 07:57:23;;;;;;;3.90;1.30;;;26.60;15.70;;;;;;5037964;28;46568;-64
2022/07/13 07:59:48;;;;;;;3.37;1.47;;;26.60;15.10;;;;;;5034122;28;47122;-64
2022/07/13 08:02:14;;;;;;;2.60;1.40;;;26.70;14.90;;;;;;5013618;28;46422;-64
2022/07/13 08:04:40;;;;;;;8.43;1.70;;;26.90;14.60;;;;;;5037677;28;46464;-64
2022/07/13 08:07:07;;;;;;;3.70;1.20;;;27.20;14.00;;;;;;5038720;28;46719;-64
2022/07/13 08:09:35;;;;;;;3.67;1.40;;;27.50;13.50;;;;;;4989376;28;1391039;-63
2022/07/13 08:12:03;;;;;;;11.40;1.40;;;27.70;13.00;;;;;;5034974;28;46346;-64
2022/07/13 08:14:29;;;;;;;5.00;1.30;;;28.10;12.50;;;;;;5038064;28;46439;-62
2022/07/13 08:16:55;;;;;;;4.30;1.20;;;28.50;11.90;;;;;;5040293;28;46465;-63
2022/07/13 08:19:21;;;;;;;1.80;0.90;;;28.70;11.20;;;;;;5035946;28;48221;-63
2022/07/13 08:21:47;;;;;;;2.50;1.20;;;29.00;9.40;;;;;;5040814;28;46517;-62
2022/07/13 08:24:12;;;;;;;2.53;1.17;;;28.90;8.90;;;;;;5041839;28;46243;-62
2022/07/13 08:26:38;;;;;;;2.93;1.10;;;28.80;8.80;;;;;;5040248;28;46381;-59
2022/07/13 08:29:03;;;;;;;1.90;1.00;;;28.70;8.70;;;;;;5035486;28;46899;-59
2022/07/13 08:31:29;;;;;;;4.73;1.10;;;28.70;8.30;;;;;;5043302;28;46877;-59
2022/07/13 08:39:25;;;;;;;3.17;1.17;;;28.60;8.50;;;;;;5041654;28;46361;-60
2022/07/13 08:41:50;;;;;;;6.17;1.40;;;28.20;8.60;;;;;;5036530;28;46526;-59
2022/07/13 08:44:17;;;;;;;2.57;1.10;;;28.00;8.90;;;;;;5036351;28;46490;-59
2022/07/13 08:46:43;;;;;;;4.13;1.30;;;28.10;8.80;;;;;;5038046;28;46375;-60
2022/07/13 08:49:09;;;;;;;1.90;0.93;;;28.10;8.60;;;;;;5037477;28;46366;-59
2022/07/13 08:51:36;;;;;;;3.10;1.27;;;27.90;8.90;;;;;;5035832;28;46403;-60
2022/07/13 08:54:04;;;;;;;2.30;1.20;;;27.70;9.40;;;;;;5038364;28;46436;-59
2022/07/13 08:56:30;;;;;;;3.50;1.17;;;27.50;9.70;;;;;;5038604;28;46386;-59
2022/07/13 08:58:56;;;;;;;2.07;1.17;;;27.20;10.00;;;;;;5034999;28;47921;-59
2022/07/13 09:01:22;;;;;;;3.30;1.63;;;27.30;10.40;;;;;;5036933;28;46549;-60
2022/07/13 09:03:48;;;;;;;2.60;1.13;;;27.50;9.90;;;;;;5037508;28;46523;-60
2022/07/13 09:06:48;;;;;;;1.83;1.10;;;28.00;9.80;;;;;;5036260;28;47348;-60
2022/07/13 09:09:27;;;;;;;2.40;1.10;;;28.50;8.80;;;;;;5004076;28;46723;-60
2022/07/13 09:12:08;;;;;;;3.83;1.20;;;28.80;7.90;;;;;;5037456;28;46639;-59
2022/07/13 09:14:33;;;;;;;2.30;1.00;;;29.10;7.50;;;;;;5037724;28;46067;-59
2022/07/13 09:16:59;;;;;;;2.53;1.20;;;29.60;6.00;;;;;;5038161;28;46761;-60
2022/07/13 09:19:27;;;;;;;4.70;1.20;;;29.80;5.80;;;;;;5035386;28;47175;-60
2022/07/13 09:22:08;;;;;;;3.40;1.00;;;29.80;5.00;;;;;;5038520;28;46498;-58
2022/07/13 09:24:44;;;;;;;4.67;1.33;;;30.20;3.80;;;;;;5033830;28;46399;-58
2022/07/13 09:27:10;;;;;;;2.30;1.20;;;30.50;3.70;;;;;;5037824;28;46378;-59
2022/07/13 09:29:38;;;;;;;2.13;1.03;;;30.50;3.10;;;;;;5033885;28;46376;-59
2022/07/13 09:32:07;;;;;;;5.30;1.10;;;30.80;2.80;;;;;;5036223;28;46560;-61
2022/07/13 09:34:51;;;;;;;1.97;1.00;;;30.90;2.70;;;;;;5036461;28;46418;-59
2022/07/13 09:37:31;;;;;;;3.30;0.90;;;30.70;2.30;;;;;;5035834;28;45882;-60
2022/07/13 09:40:00;;;;;;;11.43;1.07;;;30.20;2.80;;;;;;5035657;28;46375;-59
2022/07/13 09:42:31;;;;;;;1.77;0.80;;;29.70;3.10;;;;;;5037205;28;46506;-59
2022/07/13 09:47:47;;;;;;;2.10;0.93;;;29.90;2.40;;;;;;5033258;28;46499;-59
2022/07/13 09:50:13;;;;;;;2.07;1.13;;;30.10;2.00;;;;;;5037534;28;46449;-60
2022/07/13 09:52:39;;;;;;;1.90;1.00;;;30.20;1.50;;;;;;5034145;28;46497;-60
2022/07/13 09:55:10;;;;;;;3.23;1.00;;;30.30;1.40;;;;;;5036140;28;46455;-59
2022/07/13 09:57:44;;;;;;;2.10;1.03;;;30.30;1.80;;;;;;5036882;28;46542;-59
2022/07/13 10:00:11;;;;;;;3.60;1.10;;;30.10;1.50;;;;;;5032770;28;47094;-59
2022/07/13 10:02:38;;;;;;;2.33;1.13;;;29.90;1.80;;;;;;5037240;28;46419;-59
2022/07/13 10:05:05;;;;;;;6.83;1.10;;;30.00;2.00;;;;;;5039080;28;46464;-59
2022/07/13 10:07:31;;;;;;;2.30;1.20;;;30.00;1.80;;;;;;5038614;28;46644;-59
2022/07/13 10:09:58;;;;;;;2.10;1.10;;;30.10;2.60;;;;;;5040033;28;46730;-59
2022/07/13 10:12:23;;;;;;;2.03;1.00;;;30.00;1.00;;;;;;5036789;28;46460;-59
2022/07/13 10:14:51;;;;;;;6.20;1.30;;;29.80;1.20;;;;;;5039541;28;46607;-60
2022/07/13 10:17:17;;;;;;;2.60;1.00;;;29.90;1.00;;;;;;5040016;28;45876;-59
2022/07/13 10:20:00;;;;;;;1.70;0.80;;;30.00;1.00;;;;;;5036755;28;47042;-59
2022/07/13 10:22:29;;;;;;;4.37;1.10;;;30.00;1.00;;;;;;5040001;28;46377;-60
2022/07/13 10:24:59;;;;;;;2.40;1.20;;;29.90;1.50;;;;;;5034820;28;46531;-59
2022/07/13 10:27:26;;;;;;;2.20;1.03;;;29.70;2.00;;;;;;5040502;28;46437;-59
2022/07/13 10:30:02;;;;;;;2.13;1.13;;;30.00;1.60;;;;;;5035353;28;46721;-59
2022/07/13 10:32:30;;;;;;;2.50;1.20;;;30.10;1.20;;;;;;5038631;28;46398;-58
2022/07/13 10:35:04;;;;;;;4.17;1.23;;;30.50;1.00;;;;;;5038076;28;46323;-58
2022/07/13 10:38:01;;;;;;;2.93;1.10;;;30.40;1.00;;;;;;5038304;28;46644;-59
2022/07/13 10:40:28;;;;;;;2.00;1.10;;;30.20;1.00;;;;;;5038163;28;47318;-59
2022/07/13 10:42:53;;;;;;;2.63;1.10;;;29.90;1.00;;;;;;5038717;28;46730;-60
2022/07/13 10:45:35;;;;;;;3.10;1.30;;;29.90;1.00;;;;;;5040048;28;46341;-58
2022/07/13 10:48:04;;;;;;;3.10;1.20;;;30.10;1.00;;;;;;5037986;28;46417;-58
2022/07/13 10:50:36;;;;;;;1.97;1.13;;;30.50;1.00;;;;;;5037072;28;46370;-58
2022/07/13 10:53:02;;;;;;;2.87;1.23;;;31.00;1.00;;;;;;5040681;28;45968;-59
2022/07/13 10:55:33;;;;;;;2.43;1.10;;;31.20;1.00;;;;;;5038352;28;46402;-60
2022/07/13 10:58:01;;;;;;;2.10;1.17;;;31.40;1.00;;;;;;5040203;28;46547;-59
2022/07/13 11:00:41;;;;;;;3.87;1.33;;;31.40;1.00;;;;;;5036058;28;46414;-59
2022/07/13 11:03:44;;;;;;;3.20;1.20;;;31.40;1.00;;;;;;5040125;28;46473;-59
2022/07/13 11:06:14;;;;;;;2.07;1.00;;;31.40;1.00;;;;;;5038952;28;46551;-59
2022/07/13 11:08:41;;;;;;;5.50;1.10;;;31.90;1.00;;;;;;5037955;28;46327;-58
2022/07/13 11:11:14;;;;;;;2.50;1.07;;;31.80;1.00;;;;;;5038333;28;47979;-59
2022/07/13 11:13:45;;;;;;;1.90;0.90;;;31.70;1.00;;;;;;5037378;28;46391;-61
2022/07/13 11:16:12;;;;;;;1.87;0.90;;;31.70;1.00;;;;;;5037587;28;46371;-62
2022/07/13 11:18:39;;;;;;;3.27;0.97;;;31.70;1.00;;;;;;5039835;28;46508;-61
2022/07/13 11:21:06;;;;;;;2.30;1.10;;;31.40;1.00;;;;;;5037151;28;46668;-62
2022/07/13 11:26:51;;;;;;;2.47;1.20;;;30.90;1.00;;;;;;5030419;28;45893;-62
2022/07/13 11:29:32;;;;;;;3.43;1.10;;;31.10;1.00;;;;;;5036626;28;46014;-61
2022/07/13 11:32:02;;;;;;;3.70;1.00;;;30.90;1.00;;;;;;5038756;28;46642;-61
2022/07/13 11:34:28;;;;;;;4.67;1.20;;;30.60;1.00;;;;;;5035332;28;46335;-62
2022/07/13 11:36:57;;;;;;;3.60;1.00;;;30.50;1.00;;;;;;5036902;28;46382;-62
2022/07/13 11:39:30;;;;;;;2.53;1.20;;;30.60;1.00;;;;;;5039543;28;46325;-62
2022/07/13 11:41:58;;;;;;;3.40;1.00;;;30.80;1.00;;;;;;5035441;28;48853;-64
2022/07/13 11:44:31;;;;;;;2.70;1.03;;;30.90;1.00;;;;;;5037246;28;46193;-64
2022/07/13 11:46:58;;;;;;;4.03;1.23;;;30.50;1.00;;;;;;5036898;28;46620;-62
2022/07/13 11:49:25;;;;;;;2.60;1.33;;;30.20;1.00;;;;;;5037078;28;46431;-63
2022/07/13 11:51:51;;;;;;;3.13;1.30;;;30.00;1.00;;;;;;5036795;28;47948;-61
2022/07/13 11:54:19;;;;;;;4.20;1.20;;;30.00;1.00;;;;;;5037928;28;46382;-62
2022/07/13 11:56:47;;;;;;;6.33;0.93;;;30.00;1.00;;;;;;5038987;28;46485;-62
2022/07/13 11:59:32;;;;;;;1.83;0.93;;;30.00;1.00;;;;;;5037644;28;45857;-62
2022/07/13 12:01:59;;;;;;;3.93;1.17;;;30.20;1.00;;;;;;5038228;28;46606;-62
2022/07/13 12:04:26;;;;;;;2.70;1.00;;;30.30;1.00;;;;;;5036905;28;46557;-62
2022/07/13 12:07:08;;;;;;;2.83;1.00;;;30.20;1.00;;;;;;5038675;28;46797;-65
2022/07/13 12:09:33;;;;;;;2.40;1.20;;;29.90;1.00;;;;;;5038128;28;46569;-63
2022/07/13 12:11:59;;;;;;;2.20;1.20;;;30.00;1.00;;;;;;5038153;28;46460;-61
2022/07/13 12:14:25;;;;;;;2.57;1.27;;;30.00;1.00;;;;;;5037153;28;46462;-61
2022/07/13 12:16:51;;;;;;;3.73;1.10;;;30.10;1.00;;;;;;5038572;28;46808;-62
2022/07/13 12:19:19;;;;;;;6.17;1.00;;;30.20;1.00;;;;;;5037934;28;46426;-64
2022/07/13 12:22:00;;;;;;;3.50;1.00;;;30.20;1.00;;;;;;5038072;28;46331;-67
2022/07/13 12:24:29;;;;;;;4.20;1.20;;;30.10;1.00;;;;;;5036297;28;46789;-63
2022/07/13 12:26:55;;;;;;;3.93;1.03;;;30.20;1.00;;;;;;5036598;28;46463;-62
2022/07/13 12:29:27;;;;;;;3.00;1.10;;;30.30;1.00;;;;;;5035593;28;46864;-63
2022/07/13 12:31:52;;;;;;;1.83;1.00;;;30.30;1.00;;;;;;5037522;28;46403;-60
2022/07/13 12:34:20;;;;;;;2.53;1.13;;;30.30;1.00;;;;;;5037634;28;46415;-61
2022/07/13 12:36:48;;;;;;;6.63;1.13;;;30.10;1.00;;;;;;5036138;28;45877;-61
2022/07/13 12:39:13;;;;;;;3.07;1.20;;;30.20;1.00;;;;;;5036508;28;45879;-63
2022/07/13 12:41:42;;;;;;;1.80;1.00;;;29.90;1.00;;;;;;5037272;28;47208;-61
2022/07/13 12:44:09;;;;;;;3.50;1.40;;;30.00;1.00;;;;;;5038314;28;46435;-63
2022/07/13 12:46:45;;;;;;;2.60;1.10;;;30.30;1.00;;;;;;5037123;28;46406;-60
2022/07/13 12:49:11;;;;;;;2.60;1.20;;;30.30;1.00;;;;;;5035012;28;46362;-61
2022/07/13 12:52:08;;;;;;;1.80;1.00;;;30.40;1.00;;;;;;5037327;28;47446;-60
2022/07/13 12:54:45;;;;;;;2.97;1.00;;;30.10;1.00;;;;;;5022795;28;46452;-59
2022/07/13 12:57:15;;;;;;;3.30;1.10;;;30.00;1.00;;;;;;5037391;28;46500;-60
2022/07/13 13:00:07;;;;;;;3.13;1.10;;;30.00;1.00;;;;;;5033473;28;45831;-59
2022/07/13 13:02:33;;;;;;;3.00;1.30;;;30.10;1.00;;;;;;5037549;28;46436;-62
2022/07/13 13:04:58;;;;;;;2.23;1.10;;;30.40;1.00;;;;;;5035812;28;46414;-61